Time;durP1;ratioP1;P1;durP2;ratioP2;P2;SDS_P1;SDS_P2;PMS_P1;PMS_P2;Temp;Humidity;BMP_temperature;BMP_pressure;BME280_temperature;BME280_humidity;BME280_pressure;Samples;Min_cycle;Max_cycle;Signal;HPM_P1;HPM_P2
2022/12/31 00:00:42;;;;;;;0.30;0.30;;;12.60;99.90;;;12.72;100.00;100022.63;5200813;28;20115;-74
2022/12/31 00:03:14;;;;;;;1.10;0.55;;;12.60;99.90;;;12.74;100.00;100033.97;5208729;28;20045;-73
2022/12/31 00:05:47;;;;;;;1.02;0.40;;;12.60;99.90;;;12.77;100.00;100036.63;5216647;28;20042;-74
2022/12/31 00:08:20;;;;;;;0.77;0.50;;;12.60;99.90;;;12.81;100.00;100034.06;5205743;28;20041;-73
2022/12/31 00:10:52;;;;;;;0.22;0.22;;;12.70;99.90;;;12.84;100.00;100032.34;5206387;28;20045;-74
2022/12/31 00:13:26;;;;;;;1.05;0.40;;;12.70;99.90;;;12.85;100.00;100020.19;5203852;28;20529;-73
2022/12/31 00:16:07;;;;;;;0.95;0.30;;;12.80;99.90;;;12.83;100.00;100032.34;5205977;28;20046;-74
2022/12/31 00:18:43;;;;;;;0.82;0.38;;;12.70;99.90;;;12.87;100.00;100023.69;5205589;28;20045;-73
2022/12/31 00:21:17;;;;;;;0.60;0.60;;;12.70;99.90;;;12.92;100.00;100024.63;5206077;28;20053;-73
2022/12/31 00:23:49;;;;;;;0.25;0.25;;;12.80;99.90;;;12.94;100.00;100020.28;5206365;28;20387;-73
2022/12/31 00:26:24;;;;;;;0.50;0.50;;;12.80;99.90;;;12.93;100.00;100026.38;5206114;28;20045;-74
2022/12/31 00:29:00;;;;;;;0.63;0.40;;;12.80;99.90;;;12.93;100.00;100022.03;5205461;28;20438;-73
2022/12/31 00:31:35;;;;;;;0.50;0.50;;;12.80;99.90;;;12.96;100.00;100021.19;5205967;28;20049;-74
2022/12/31 00:34:07;;;;;;;0.38;0.38;;;12.90;99.90;;;13.00;100.00;100023.00;5204629;28;20049;-73
2022/12/31 00:36:41;;;;;;;0.38;0.32;;;12.90;99.90;;;13.04;100.00;100027.41;5198444;28;20046;-74
2022/12/31 00:39:13;;;;;;;0.47;0.35;;;12.90;99.90;;;13.07;100.00;100024.81;5205249;28;20103;-73
2022/12/31 00:41:46;;;;;;;1.38;0.50;;;12.90;99.90;;;13.09;100.00;100028.31;5206040;28;20048;-74
2022/12/31 00:44:20;;;;;;;0.90;0.70;;;12.90;99.90;;;13.15;100.00;100017.94;5205772;28;20482;-74
2022/12/31 00:46:52;;;;;;;1.38;0.45;;;13.00;99.90;;;13.20;100.00;100021.53;5205718;28;20068;-73
2022/12/31 00:49:24;;;;;;;0.40;0.40;;;13.10;99.90;;;13.26;100.00;100026.84;5204942;28;20045;-73
2022/12/31 00:51:56;;;;;;;0.32;0.32;;;13.10;99.90;;;13.30;100.00;100031.25;5205649;28;20502;-73
2022/12/31 00:54:28;;;;;;;0.32;0.32;;;13.10;99.90;;;13.34;100.00;100019.06;5205209;28;20050;-72
2022/12/31 00:57:01;;;;;;;0.38;0.38;;;13.20;99.90;;;13.38;100.00;100020.00;5205051;28;20049;-73
2022/12/31 00:59:34;;;;;;;0.75;0.38;;;13.20;99.90;;;13.37;100.00;100013.88;5204889;28;20151;-73
2022/12/31 01:02:06;;;;;;;0.25;0.20;;;13.20;99.90;;;13.36;100.00;100008.59;5187521;28;20049;-73
2022/12/31 01:04:38;;;;;;;0.43;0.30;;;13.20;99.90;;;13.36;100.00;100011.22;5205509;28;20041;-74
2022/12/31 01:07:10;;;;;;;0.47;0.40;;;13.20;99.90;;;13.38;100.00;100017.38;5205352;28;20217;-73
2022/12/31 01:09:43;;;;;;;0.25;0.25;;;13.30;99.90;;;13.44;100.00;100012.19;5203632;28;20337;-73
2022/12/31 01:12:15;;;;;;;0.80;0.40;;;13.30;99.90;;;13.47;100.00;100007.88;5205311;28;20045;-73
2022/12/31 01:14:49;;;;;;;0.30;0.30;;;13.30;99.90;;;13.53;100.00;100010.53;5205021;28;20056;-73
2022/12/31 01:17:21;;;;;;;0.30;0.30;;;13.40;99.90;;;13.57;100.00;100012.34;5203811;28;20148;-73
2022/12/31 01:19:54;;;;;;;0.45;0.45;;;13.40;99.90;;;13.61;100.00;100005.38;5205104;28;20645;-74
2022/12/31 01:22:27;;;;;;;0.20;0.20;;;13.40;99.90;;;13.62;100.00;100017.59;5204758;28;20045;-74
2022/12/31 01:24:59;;;;;;;0.30;0.30;;;13.50;99.90;;;13.64;100.00;100026.38;5204647;28;20048;-73
2022/12/31 01:27:31;;;;;;;0.30;0.30;;;13.50;99.90;;;13.66;100.00;100027.25;5204243;28;20045;-73
2022/12/31 01:30:07;;;;;;;0.35;0.30;;;13.50;99.90;;;13.68;100.00;100022.03;5204673;28;20124;-73
2022/12/31 01:32:39;;;;;;;1.55;0.20;;;13.50;99.90;;;13.66;100.00;100022.03;5186741;28;20577;-73
2022/12/31 01:35:11;;;;;;;0.40;0.32;;;13.50;99.90;;;13.70;100.00;100020.31;5204058;28;20512;-74
2022/12/31 01:37:43;;;;;;;0.20;0.20;;;13.50;99.90;;;13.70;100.00;100029.06;5204268;28;20052;-73
2022/12/31 01:40:15;;;;;;;0.60;0.22;;;13.50;99.90;;;13.71;100.00;100025.56;5204509;28;20041;-72
2022/12/31 01:42:55;;;;;;;0.22;0.22;;;13.50;99.90;;;13.83;100.00;100011.72;5186653;28;20065;-74
2022/12/31 01:45:28;;;;;;;0.30;0.30;;;13.60;99.90;;;13.88;100.00;100016.97;5204222;28;20041;-73
2022/12/31 01:48:00;;;;;;;0.28;0.20;;;13.70;99.90;;;13.89;100.00;100014.41;5204161;28;20096;-74
2022/12/31 01:50:37;;;;;;;0.28;0.20;;;13.70;99.90;;;13.91;100.00;100007.41;5204949;28;20049;-73
2022/12/31 01:53:11;;;;;;;0.30;0.30;;;13.80;99.90;;;13.93;100.00;100031.00;5203259;28;20509;-72
2022/12/31 01:55:49;;;;;;;0.30;0.30;;;13.80;99.90;;;13.92;100.00;100037.13;5204256;28;20099;-74
2022/12/31 01:58:26;;;;;;;0.25;0.22;;;13.70;99.90;;;13.89;100.00;100050.16;5202964;28;20530;-73
2022/12/31 02:01:00;;;;;;;0.20;0.20;;;13.70;99.90;;;13.89;100.00;100044.94;5203905;28;20054;-74
2022/12/31 02:03:33;;;;;;;0.20;0.20;;;13.80;99.90;;;13.95;100.00;100048.47;5204485;28;20052;-72
2022/12/31 02:06:10;;;;;;;0.43;0.20;;;13.80;99.90;;;13.98;100.00;100045.03;5203852;28;20045;-73
2022/12/31 02:08:43;;;;;;;0.22;0.22;;;13.80;99.90;;;13.99;100.00;100054.66;5186504;28;20049;-74
2022/12/31 02:11:26;;;;;;;0.30;0.30;;;13.80;99.90;;;13.96;100.00;100050.28;5204290;28;20502;-72
2022/12/31 02:14:02;;;;;;;0.20;0.20;;;13.80;99.90;;;13.96;100.00;100050.28;5204385;28;20045;-72
2022/12/31 02:16:48;;;;;;;0.13;0.13;;;13.80;99.90;;;13.97;100.00;100049.41;5204084;28;20041;-73
2022/12/31 02:20:24;;;;;;;0.22;0.22;;;13.80;99.90;;;14.01;100.00;100047.66;5203831;28;20033;-73
2022/12/31 02:23:32;;;;;;;0.25;0.25;;;13.80;99.90;;;14.07;100.00;100040.75;5199656;28;20053;-73
2022/12/31 02:26:45;;;;;;;0.13;0.13;;;13.80;99.90;;;14.14;100.00;100041.66;5204011;28;20048;-73
2022/12/31 02:30:09;;;;;;;0.20;0.20;;;13.90;99.90;;;14.13;100.00;100045.16;5201652;28;20058;-72
2022/12/31 02:32:55;;;;;;;0.15;0.15;;;14.00;99.90;;;14.21;100.00;100038.22;5203706;28;20041;-73
2022/12/31 02:35:32;;;;;;;0.13;0.13;;;14.00;99.90;;;14.27;100.00;100038.28;5204242;28;20053;-73
2022/12/31 02:38:11;;;;;;;0.40;0.30;;;14.00;99.90;;;14.31;100.00;100044.44;5207418;28;20043;-73
2022/12/31 02:40:44;;;;;;;0.15;0.15;;;14.10;99.90;;;14.28;100.00;100049.63;5208394;28;20056;-73
2022/12/31 02:43:16;;;;;;;0.20;0.20;;;14.10;99.90;;;14.31;100.00;100050.56;5207869;28;20056;-73
2022/12/31 02:46:00;;;;;;;0.88;0.40;;;14.10;99.90;;;14.35;100.00;100072.44;5208140;28;20068;-74
2022/12/31 02:48:41;;;;;;;0.38;0.15;;;14.10;99.90;;;14.38;100.00;100078.56;5189826;28;20520;-74
2022/12/31 02:51:30;;;;;;;0.20;0.20;;;14.20;99.90;;;14.53;100.00;100076.97;5190367;28;20049;-73
2022/12/31 02:54:19;;;;;;;1.45;0.32;;;14.20;99.90;;;14.59;100.00;100067.41;5207695;28;20038;-72
2022/12/31 02:57:04;;;;;;;0.25;0.25;;;14.40;99.90;;;14.64;100.00;100056.94;5208023;28;20517;-73
2022/12/31 03:02:34;;;;;;;0.17;0.17;;;14.40;99.90;;;14.59;100.00;100056.91;5189792;28;20049;-73
2022/12/31 03:05:07;;;;;;;0.10;0.10;;;14.40;99.90;;;14.66;100.00;100073.56;5189836;28;20305;-72
2022/12/31 03:07:41;;;;;;;0.15;0.15;;;14.40;99.90;;;14.69;100.00;100063.09;5206944;28;20494;-73
2022/12/31 03:10:15;;;;;;;0.40;0.20;;;14.50;99.90;;;14.66;100.00;100076.19;5207912;28;20124;-73
2022/12/31 03:12:47;;;;;;;0.25;0.25;;;14.50;99.90;;;14.72;100.00;100073.59;5207696;28;20045;-74
2022/12/31 03:15:21;;;;;;;0.10;0.10;;;14.50;99.90;;;14.81;100.00;100084.19;5207905;28;20068;-74
2022/12/31 03:17:59;;;;;;;0.13;0.13;;;14.60;99.90;;;14.80;100.00;100085.06;5206803;28;20136;-73
2022/12/31 03:23:28;;;;;;;0.10;0.10;;;14.60;99.90;;;14.81;100.00;100089.41;5159788;28;20045;-74
2022/12/31 03:26:01;;;;;;;0.22;0.22;;;14.60;99.90;;;14.82;100.00;100099.03;5206933;28;20041;-74
2022/12/31 03:28:34;;;;;;;0.20;0.20;;;14.60;99.90;;;14.78;100.00;100089.38;5206491;28;20053;-73
2022/12/31 03:31:07;;;;;;;0.20;0.20;;;14.60;99.90;;;14.77;100.00;100076.25;5207003;28;20049;-74
2022/12/31 03:33:42;;;;;;;0.32;0.32;;;14.60;99.90;;;14.82;100.00;100085.06;5207135;28;20049;-73
2022/12/31 03:36:15;;;;;;;0.05;0.05;;;14.60;99.90;;;14.87;100.00;100073.72;5206808;28;20048;-74
2022/12/31 03:38:47;;;;;;;0.10;0.10;;;14.60;99.90;;;14.87;100.00;100078.97;5207086;28;20129;-72
2022/12/31 03:41:19;;;;;;;0.10;0.10;;;14.70;99.90;;;14.88;100.00;100083.34;5207003;28;20054;-72
2022/12/31 03:43:52;;;;;;;1.88;0.20;;;14.70;99.90;;;14.88;100.00;100093.84;5207046;28;20406;-73
2022/12/31 03:46:24;;;;;;;0.20;0.20;;;14.70;99.90;;;14.86;100.00;100082.44;5207191;28;20222;-74
2022/12/31 03:48:57;;;;;;;0.20;0.20;;;14.70;99.90;;;14.83;100.00;100103.41;5206235;28;20041;-73
2022/12/31 03:51:29;;;;;;;0.13;0.13;;;14.60;99.90;;;14.84;100.00;100099.91;5205939;28;20053;-74
2022/12/31 03:54:01;;;;;;;0.20;0.20;;;14.60;99.90;;;14.89;100.00;100098.22;5206848;28;20398;-74
2022/12/31 03:56:33;;;;;;;0.10;0.10;;;14.70;99.90;;;14.92;100.00;100103.47;5207455;28;20041;-73
2022/12/31 03:59:06;;;;;;;0.10;0.10;;;14.70;99.90;;;14.90;100.00;100107.84;5204915;28;20049;-73
2022/12/31 04:01:38;;;;;;;0.45;0.20;;;14.70;99.90;;;14.97;100.00;100089.50;5206491;28;20049;-73
2022/12/31 04:04:12;;;;;;;0.10;0.10;;;14.70;99.90;;;14.92;100.00;100097.34;5206806;28;20049;-73
2022/12/31 04:06:44;;;;;;;0.10;0.10;;;14.70;99.90;;;14.91;100.00;100091.22;5206605;28;20045;-73
2022/12/31 04:09:16;;;;;;;0.10;0.10;;;14.70;99.90;;;15.02;100.00;100079.91;5206324;28;20042;-73
2022/12/31 04:11:49;;;;;;;0.13;0.13;;;14.70;99.90;;;15.02;100.00;100077.28;5206414;28;20144;-73
2022/12/31 04:14:21;;;;;;;0.30;0.20;;;14.80;99.90;;;15.00;100.00;100082.53;5206078;28;20116;-73
2022/12/31 04:16:53;;;;;;;0.15;0.15;;;14.80;99.90;;;14.96;100.00;100079.88;5206211;28;20049;-75
2022/12/31 04:19:28;;;;;;;0.13;0.13;;;14.80;99.90;;;15.00;100.00;100079.03;5205767;28;20052;-73
2022/12/31 04:22:00;;;;;;;0.20;0.20;;;14.80;99.90;;;15.01;100.00;100070.28;5206083;28;20057;-73
2022/12/31 04:24:32;;;;;;;0.15;0.15;;;14.80;99.90;;;15.11;100.00;100082.56;5206262;28;20048;-74
2022/12/31 04:27:04;;;;;;;0.13;0.13;;;14.80;99.90;;;15.13;100.00;100096.63;5206335;28;20046;-73
2022/12/31 04:29:36;;;;;;;0.30;0.30;;;14.90;99.90;;;15.09;100.00;100093.06;5205952;28;20048;-73
2022/12/31 04:32:09;;;;;;;0.10;0.10;;;14.90;99.90;;;15.03;100.00;100100.03;5206004;28;20048;-74
2022/12/31 04:34:43;;;;;;;0.10;0.10;;;14.80;99.90;;;15.05;100.00;100106.16;5204428;28;20055;-74
2022/12/31 04:37:15;;;;;;;0.22;0.22;;;14.80;99.90;;;15.05;100.00;100106.16;5205901;28;20095;-74
2022/12/31 04:39:48;;;;;;;0.20;0.20;;;14.80;99.90;;;15.04;100.00;100101.78;5204257;28;20041;-74
2022/12/31 04:42:21;;;;;;;0.13;0.13;;;14.80;99.90;;;15.09;100.00;100131.56;5205876;28;20099;-74
2022/12/31 04:44:53;;;;;;;0.88;0.13;;;14.80;99.90;;;15.07;100.00;100128.06;5205335;28;20045;-74
2022/12/31 04:47:25;;;;;;;0.13;0.13;;;14.80;99.90;;;15.01;100.00;100138.53;5205215;28;20055;-73
2022/12/31 04:49:58;;;;;;;0.20;0.20;;;14.80;99.90;;;15.00;100.00;100142.91;5205542;28;20072;-74
2022/12/31 04:52:30;;;;;;;0.10;0.10;;;14.80;99.90;;;15.06;100.00;100139.41;5204370;28;20061;-73
2022/12/31 04:55:02;;;;;;;0.63;0.13;;;14.80;99.90;;;15.10;100.00;100149.06;5204908;28;20048;-73
2022/12/31 04:57:35;;;;;;;0.15;0.15;;;14.90;99.90;;;15.17;100.00;100148.25;5205266;28;20048;-73
2022/12/31 05:00:09;;;;;;;1.00;0.25;;;14.90;99.90;;;15.15;100.00;100160.47;5203221;28;20076;-74
2022/12/31 05:02:42;;;;;;;0.20;0.20;;;14.90;99.90;;;15.14;100.00;100153.47;5205530;28;20049;-75
2022/12/31 05:05:17;;;;;;;0.13;0.13;;;14.90;99.90;;;15.11;100.00;100145.56;5205308;28;20045;-74
2022/12/31 05:07:50;;;;;;;0.13;0.13;;;14.90;99.90;;;15.09;100.00;100152.56;5203500;28;20061;-74
2022/12/31 05:10:23;;;;;;;0.30;0.20;;;14.90;99.90;;;15.14;100.00;100162.22;5204863;28;20041;-74
2022/12/31 05:12:56;;;;;;;0.22;0.20;;;14.90;99.90;;;15.17;100.00;100161.38;5204811;28;20482;-73
2022/12/31 05:15:28;;;;;;;0.73;0.13;;;14.90;99.90;;;15.19;100.00;100175.38;5204526;28;20307;-74
2022/12/31 05:18:00;;;;;;;0.22;0.22;;;15.00;99.90;;;15.19;100.00;100168.41;5204482;28;20111;-74
2022/12/31 05:20:34;;;;;;;0.30;0.25;;;15.00;99.90;;;15.18;100.00;100157.88;5204929;28;20081;-73
2022/12/31 05:23:07;;;;;;;1.17;0.17;;;15.00;99.90;;;15.23;100.00;100161.41;5204945;28;20541;-75
2022/12/31 05:25:39;;;;;;;0.70;0.28;;;15.00;99.90;;;15.34;100.00;100164.97;5204842;28;20045;-74
2022/12/31 05:28:11;;;;;;;0.57;0.28;;;15.10;99.90;;;15.34;100.00;100166.72;5203536;28;20049;-73
2022/12/31 05:30:45;;;;;;;0.93;0.20;;;15.00;99.90;;;15.34;100.00;100151.84;5218705;23;20072;-70
2022/12/31 05:33:17;;;;;;;0.25;0.22;;;15.10;99.90;;;15.36;100.00;100160.59;5201508;28;20038;-70
2022/12/31 05:35:51;;;;;;;0.55;0.20;;;15.20;99.90;;;15.36;100.00;100157.09;5203132;28;20073;-71
2022/12/31 05:38:23;;;;;;;0.82;0.35;;;15.10;99.90;;;15.42;100.00;100165.88;5204629;28;20046;-70
2022/12/31 05:41:05;;;;;;;0.22;0.22;;;15.20;99.90;;;15.43;100.00;100170.25;5204576;28;20586;-70
2022/12/31 05:43:37;;;;;;;0.77;0.45;;;15.20;99.90;;;15.43;100.00;100167.63;5204544;28;20049;-70
2022/12/31 05:46:09;;;;;;;0.25;0.22;;;15.20;99.90;;;15.46;100.00;100165.03;5204226;28;20049;-71
2022/12/31 05:48:42;;;;;;;1.23;0.35;;;15.20;99.90;;;15.45;100.00;100158.03;5204359;28;20053;-70
2022/12/31 05:51:16;;;;;;;0.38;0.30;;;15.20;99.90;;;15.52;100.00;100158.94;5204337;28;20041;-71
2022/12/31 05:53:48;;;;;;;0.85;0.40;;;15.30;99.90;;;15.53;100.00;100152.81;5204684;28;20061;-70
2022/12/31 05:56:20;;;;;;;0.25;0.25;;;15.30;99.90;;;15.54;100.00;100156.31;5186641;28;20049;-70
2022/12/31 05:58:53;;;;;;;0.93;0.20;;;15.30;99.90;;;15.58;100.00;100158.06;5186179;28;20418;-70
2022/12/31 06:01:25;;;;;;;0.60;0.38;;;15.30;99.90;;;15.59;100.00;100149.34;5204349;28;20128;-71
2022/12/31 06:03:58;;;;;;;0.40;0.32;;;15.30;99.90;;;15.62;100.00;100170.38;5204606;28;20084;-70
2022/12/31 06:06:32;;;;;;;0.40;0.30;;;15.40;99.90;;;15.67;100.00;100169.53;5204261;28;20076;-70
2022/12/31 06:09:04;;;;;;;1.25;0.28;;;15.40;99.90;;;15.66;100.00;100177.44;5204150;28;20406;-71
2022/12/31 06:11:36;;;;;;;0.25;0.25;;;15.40;99.90;;;15.76;100.00;100179.19;5203460;28;20049;-70
2022/12/31 06:14:09;;;;;;;0.85;0.50;;;15.50;99.90;;;15.76;100.00;100163.44;5204525;28;20101;-70
2022/12/31 06:16:41;;;;;;;0.95;0.40;;;15.50;99.90;;;15.74;100.00;100192.34;5203917;28;20502;-71
2022/12/31 06:19:13;;;;;;;0.30;0.30;;;15.50;99.90;;;15.74;100.00;100183.59;5203781;28;20042;-70
2022/12/31 06:21:47;;;;;;;0.40;0.40;;;15.50;99.90;;;15.72;100.00;100193.22;5203969;28;20059;-71
2022/12/31 06:24:19;;;;;;;1.35;0.35;;;15.50;99.90;;;15.71;100.00;100199.31;5204235;28;20046;-71
2022/12/31 06:26:52;;;;;;;1.02;0.22;;;15.50;99.90;;;15.72;100.00;100208.97;5204065;28;20041;-70
2022/12/31 06:29:24;;;;;;;1.40;0.40;;;15.50;99.90;;;15.73;100.00;100206.34;5203827;28;20053;-70
2022/12/31 06:31:56;;;;;;;0.30;0.20;;;15.50;99.90;;;15.70;100.00;100215.97;5204058;28;20050;-70
2022/12/31 06:34:28;;;;;;;1.02;0.50;;;15.50;99.90;;;15.70;100.00;100215.97;5204562;28;20049;-70
2022/12/31 06:37:01;;;;;;;0.63;0.30;;;15.50;99.90;;;15.73;100.00;100221.25;5203687;28;20045;-71
2022/12/31 06:39:33;;;;;;;0.32;0.32;;;15.40;99.90;;;15.73;100.00;100239.63;5186170;28;20049;-70
2022/12/31 06:42:06;;;;;;;0.65;0.40;;;15.50;99.90;;;15.79;100.00;100247.56;5203838;28;20084;-70
2022/12/31 06:44:38;;;;;;;1.17;0.20;;;15.50;99.90;;;15.77;100.00;100253.66;5186103;28;20053;-70
2022/12/31 06:47:11;;;;;;;0.70;0.40;;;15.50;99.90;;;15.83;100.00;100249.31;5203699;28;20042;-71
2022/12/31 06:49:43;;;;;;;0.40;0.30;;;15.50;99.90;;;15.83;100.00;100259.81;5185737;28;20532;-71
2022/12/31 06:52:16;;;;;;;0.90;0.40;;;15.60;99.90;;;15.83;100.00;100259.81;5203897;28;20052;-71
2022/12/31 06:54:49;;;;;;;1.00;0.30;;;15.60;99.90;;;15.80;100.00;100253.69;5203729;28;20057;-71
2022/12/31 06:57:23;;;;;;;0.47;0.40;;;15.60;99.90;;;15.85;100.00;100258.09;5203559;28;20608;-71
2022/12/31 06:59:56;;;;;;;0.60;0.50;;;15.60;99.90;;;15.86;100.00;100258.97;5203993;28;20506;-70
2022/12/31 07:03:10;;;;;;;0.20;0.20;;;15.60;99.90;;;15.86;100.00;100259.84;5186440;28;20076;-69
2022/12/31 07:05:46;;;;;;;;;;;15.60;99.90;;;15.86;100.00;100270.38;5203677;28;20044;-60
2022/12/31 07:08:40;;;;;;;1.05;0.32;;;15.60;99.90;;;15.85;100.00;100283.50;5202884;28;19924;-60
2022/12/31 07:11:20;;;;;;;0.22;0.22;;;15.60;99.90;;;15.85;100.00;100275.63;5203573;28;20042;-60
2022/12/31 07:14:03;;;;;;;0.55;0.45;;;15.60;99.90;;;15.88;100.00;100279.13;5202900;28;20124;-59
2022/12/31 07:16:49;;;;;;;0.40;0.35;;;15.60;99.90;;;15.96;100.00;100266.00;5203257;28;20049;-60
2022/12/31 07:19:34;;;;;;;1.00;0.40;;;15.60;99.90;;;15.91;100.00;100278.25;5202881;28;20112;-60
2022/12/31 07:22:13;;;;;;;0.73;0.40;;;15.60;99.90;;;15.92;100.00;100270.41;5204596;28;20045;-61
2022/12/31 07:24:47;;;;;;;0.68;0.43;;;15.60;99.90;;;15.87;100.00;100272.13;5206987;28;20041;-60
2022/12/31 07:27:37;;;;;;;1.65;0.45;;;15.60;99.90;;;15.93;100.00;100282.66;5206488;28;20486;-61
2022/12/31 07:30:14;;;;;;;0.93;0.32;;;15.70;99.90;;;15.96;100.00;100289.66;5206909;28;20038;-59
2022/12/31 07:33:32;;;;;;;0.63;0.50;;;15.70;99.90;;;15.91;100.00;100294.94;5206786;28;20076;-58
2022/12/31 07:36:16;;;;;;;0.30;0.30;;;15.70;99.90;;;15.88;100.00;100297.53;5200684;28;20076;-62
2022/12/31 07:38:54;;;;;;;0.82;0.50;;;15.70;99.90;;;15.92;100.00;100301.06;5206097;28;20376;-61
2022/12/31 07:41:46;;;;;;;1.23;0.70;;;15.60;99.90;;;15.96;100.00;100298.44;5206701;28;20045;-59
2022/12/31 07:44:40;;;;;;;0.95;0.32;;;15.70;99.90;;;15.98;100.00;100301.97;5206646;28;20041;-60
2022/12/31 07:47:20;;;;;;;;;;;15.70;99.90;;;16.01;100.00;100299.34;5207100;28;20043;-60
2022/12/31 07:49:53;;;;;;;0.80;0.40;;;15.70;99.90;;;16.00;100.00;100300.22;5206232;28;19967;-59
2022/12/31 07:52:26;;;;;;;0.52;0.52;;;15.70;99.90;;;16.00;100.00;100302.84;5206487;28;20520;-59
2022/12/31 07:54:58;;;;;;;0.60;0.32;;;15.80;99.90;;;16.00;100.00;100289.69;5206380;28;20050;-62
2022/12/31 07:57:38;;;;;;;0.70;0.57;;;15.70;99.90;;;16.01;100.00;100299.34;5205484;28;20048;-60
2022/12/31 08:00:14;;;;;;;1.55;0.60;;;15.70;99.90;;;16.10;100.00;100316.03;5206205;28;20045;-61
2022/12/31 08:03:08;;;;;;;2.15;0.43;;;15.80;99.90;;;16.18;100.00;100328.34;5206373;28;20049;-60
2022/12/31 08:05:51;;;;;;;0.65;0.52;;;15.80;99.90;;;16.17;100.00;100323.97;5202250;28;20038;-60
2022/12/31 08:08:35;;;;;;;0.60;0.50;;;15.90;99.90;;;16.13;100.00;100313.41;5210985;28;20420;-61
2022/12/31 08:11:16;;;;;;;1.20;0.47;;;15.80;99.90;;;16.12;100.00;100324.81;5225819;28;20036;-62
2022/12/31 08:13:52;;;;;;;1.67;0.57;;;15.90;99.90;;;16.11;100.00;100312.53;5223084;28;20049;-59
2022/12/31 08:16:25;;;;;;;0.65;0.40;;;15.80;99.90;;;16.11;100.00;100310.78;5212664;28;20236;-60
2022/12/31 08:18:58;;;;;;;1.00;0.50;;;15.80;99.90;;;16.07;100.00;100310.75;5225242;28;20529;-59
2022/12/31 08:21:40;;;;;;;1.45;0.57;;;15.90;99.90;;;16.12;100.00;100314.31;5225697;28;20056;-61
2022/12/31 08:24:20;;;;;;;2.08;0.50;;;15.80;99.90;;;16.11;100.00;100329.19;5185151;28;20391;-60
2022/12/31 08:27:02;;;;;;;0.50;0.40;;;15.80;99.90;;;16.06;100.00;100324.78;5206038;28;20048;-61
2022/12/31 08:29:42;;;;;;;3.00;0.60;;;15.80;99.90;;;16.13;100.00;100322.19;5204739;28;20049;-61
2022/12/31 08:32:22;;;;;;;1.25;0.57;;;15.80;99.90;;;16.11;100.00;100325.69;5204986;28;20045;-60
2022/12/31 08:35:04;;;;;;;1.65;0.70;;;15.80;99.90;;;16.13;100.00;100329.19;5219001;28;20048;-60
2022/12/31 08:37:40;;;;;;;0.90;0.55;;;15.90;99.90;;;16.06;100.00;100338.81;5216425;28;20050;-60
2022/12/31 08:40:23;;;;;;;3.08;0.63;;;15.80;99.90;;;16.07;100.00;100342.31;5205588;28;20041;-60
2022/12/31 08:43:18;;;;;;;1.55;0.60;;;15.80;99.90;;;16.09;100.00;100340.56;5194333;28;20053;-57
2022/12/31 08:45:53;;;;;;;1.02;0.68;;;15.80;99.90;;;16.08;100.00;100339.69;5184864;28;20042;-58
2022/12/31 08:48:31;;;;;;;1.25;0.60;;;15.80;99.90;;;16.09;100.00;100351.06;5182359;28;20042;-57
2022/12/31 08:51:04;;;;;;;0.98;0.60;;;15.80;99.90;;;16.14;100.00;100346.72;5184920;28;20054;-57
2022/12/31 08:53:39;;;;;;;2.30;0.52;;;15.80;99.90;;;16.20;100.00;100355.53;5183271;28;20054;-59
2022/12/31 08:56:24;;;;;;;2.88;0.60;;;15.90;99.90;;;16.28;100.00;100355.56;5184582;28;20052;-57
2022/12/31 08:59:11;;;;;;;1.55;0.80;;;16.00;99.90;;;16.34;100.00;100352.94;5190807;28;20054;-58
2022/12/31 09:02:14;;;;;;;2.80;0.77;;;16.00;99.90;;;16.37;100.00;100367.88;5199678;28;20056;-58
2022/12/31 09:04:58;;;;;;;1.17;0.70;;;16.00;99.90;;;16.40;100.00;100352.09;5194252;28;20057;-57
2022/12/31 09:07:36;;;;;;;3.58;0.68;;;16.10;99.90;;;16.42;100.00;100350.34;5196618;28;20037;-58
2022/12/31 09:10:18;;;;;;;0.43;0.43;;;16.10;99.90;;;16.44;100.00;100351.25;5199961;28;20498;-58
2022/12/31 09:12:59;;;;;;;1.02;0.60;;;16.10;99.90;;;16.53;100.00;100359.16;5205529;28;20042;-57
2022/12/31 09:15:38;;;;;;;0.55;0.55;;;16.20;99.90;;;16.47;100.00;100378.44;5179540;28;20050;-57
2022/12/31 09:18:13;;;;;;;1.80;0.60;;;16.20;99.90;;;16.50;100.00;100362.69;5204104;28;20056;-58
2022/12/31 09:20:46;;;;;;;0.63;0.63;;;16.20;99.90;;;16.53;100.00;100374.97;5204336;28;20057;-56
2022/12/31 09:23:19;;;;;;;2.13;0.68;;;16.20;99.90;;;16.55;100.00;100368.81;5204663;28;20042;-56
2022/12/31 09:26:01;;;;;;;0.70;0.60;;;16.20;99.90;;;16.50;100.00;100374.97;5204476;28;20046;-56
2022/12/31 09:28:44;;;;;;;1.52;0.73;;;16.20;99.90;;;16.49;100.00;100389.84;5206917;28;20064;-57
2022/12/31 09:31:21;;;;;;;1.52;0.50;;;16.20;99.90;;;16.55;100.00;100379.34;5204705;28;20350;-56
2022/12/31 09:34:03;;;;;;;1.20;0.63;;;16.20;99.90;;;16.61;100.00;100398.66;5205417;28;20053;-56
2022/12/31 09:36:41;;;;;;;2.25;0.60;;;16.20;99.90;;;16.59;100.00;100401.28;5203521;28;20144;-57
2022/12/31 09:39:22;;;;;;;2.38;0.50;;;16.30;99.90;;;16.57;100.00;100412.69;5204637;28;20052;-57
2022/12/31 09:42:39;;;;;;;1.55;0.70;;;16.30;99.90;;;16.54;100.00;100413.53;5207436;28;20139;-58
2022/12/31 09:46:04;;;;;;;1.38;0.65;;;16.30;99.90;;;16.52;100.00;100426.69;5189639;28;20053;-58
2022/12/31 09:49:23;;;;;;;1.67;0.60;;;16.30;99.90;;;16.51;100.00;100432.84;5154313;28;20058;-57
2022/12/31 09:52:09;;;;;;;2.40;0.90;;;16.20;99.90;;;16.55;100.00;100436.34;5182025;28;20053;-59
2022/12/31 09:54:52;;;;;;;0.80;0.73;;;16.30;99.90;;;16.63;100.00;100433.78;5184367;28;20329;-56
2022/12/31 09:57:39;;;;;;;2.00;0.63;;;16.30;99.90;;;16.61;100.00;100452.16;5184159;28;20172;-58
2022/12/31 10:00:20;;;;;;;2.20;0.60;;;16.30;99.90;;;16.57;100.00;100449.53;5166320;28;20120;-58
2022/12/31 10:03:15;;;;;;;1.27;0.40;;;16.30;99.90;;;16.57;100.00;100450.41;5184118;28;20038;-57
2022/12/31 10:06:11;;;;;;;1.50;0.63;;;16.30;99.90;;;16.54;100.00;100468.78;5184076;28;20053;-57
2022/12/31 10:09:03;;;;;;;0.55;0.52;;;16.30;99.90;;;16.53;100.00;100469.66;5183520;28;20133;-59
2022/12/31 10:12:01;;;;;;;0.90;0.43;;;16.20;99.90;;;16.56;100.00;100469.69;5183891;28;20064;-56
2022/12/31 10:15:03;;;;;;;1.45;0.70;;;16.30;99.90;;;16.54;100.00;100474.94;5184101;28;20046;-56
2022/12/31 10:17:52;;;;;;;1.60;0.65;;;16.30;99.90;;;16.58;100.00;100488.13;5183684;28;20044;-57
2022/12/31 10:20:41;;;;;;;0.60;0.55;;;16.30;99.90;;;16.55;100.00;100474.06;5205651;28;20053;-56
2022/12/31 10:23:51;;;;;;;1.27;0.60;;;16.30;99.90;;;16.54;100.00;100461.78;5186771;28;20060;-57
2022/12/31 10:26:49;;;;;;;0.50;0.30;;;16.20;99.90;;;16.57;100.00;100457.44;5204724;28;20053;-56
2022/12/31 10:29:34;;;;;;;1.67;0.63;;;16.30;99.90;;;16.64;100.00;100461.84;5204449;28;20414;-56
2022/12/31 10:32:19;;;;;;;2.17;0.50;;;16.30;99.90;;;16.67;100.00;100475.00;5204065;28;20502;-58
2022/12/31 10:34:55;;;;;;;1.50;0.52;;;16.30;99.90;;;16.67;100.00;100457.47;5209058;28;20152;-56
2022/12/31 10:37:35;;;;;;;1.58;0.50;;;16.40;99.90;;;16.69;100.00;100460.09;5204329;28;20032;-57
2022/12/31 10:40:25;;;;;;;2.10;0.88;;;16.40;99.90;;;16.70;100.00;100459.28;5204754;28;20049;-57
2022/12/31 10:43:53;;;;;;;1.27;0.40;;;16.40;99.90;;;16.71;100.00;100458.41;5201297;28;20411;-58
2022/12/31 10:47:31;;;;;;;0.82;0.50;;;16.40;99.90;;;16.74;100.00;100447.88;5184311;28;20422;-57
2022/12/31 10:50:53;;;;;;;1.73;0.60;;;16.50;99.90;;;16.79;100.00;100452.28;5189422;28;20042;-56
2022/12/31 10:54:19;;;;;;;0.90;0.55;;;16.50;99.90;;;16.72;100.00;100452.25;5172364;28;20050;-56
2022/12/31 10:57:32;;;;;;;2.40;0.70;;;16.50;99.90;;;16.74;100.00;100468.94;5178590;28;20484;-56
2022/12/31 11:00:19;;;;;;;6.38;1.00;;;16.40;99.90;;;16.78;100.00;100473.34;5179004;28;20064;-57